sensor_id;sensor_type;location;lat;lon;timestamp;temperature;humidity
67893;DHT22;54688;52.376;16.744;2023-02-13T00:00:39;4.7;84.3
67893;DHT22;54688;52.376;16.744;2023-02-13T00:03:56;4.7;84.4
67893;DHT22;54688;52.376;16.744;2023-02-13T00:06:59;4.7;84.5
67893;DHT22;54688;52.376;16.744;2023-02-13T00:10:01;4.7;84.4
67893;DHT22;54688;52.376;16.744;2023-02-13T00:13:04;4.8;84.3
67893;DHT22;54688;52.376;16.744;2023-02-13T00:16:06;4.8;84.3
67893;DHT22;54688;52.376;16.744;2023-02-13T00:19:08;4.8;84
67893;DHT22;54688;52.376;16.744;2023-02-13T00:22:11;4.8;83.9
67893;DHT22;54688;52.376;16.744;2023-02-13T00:25:13;4.7;83.9
67893;DHT22;54688;52.376;16.744;2023-02-13T00:28:15;4.8;84.1
67893;DHT22;54688;52.376;16.744;2023-02-13T00:31:18;4.7;84.4
67893;DHT22;54688;52.376;16.744;2023-02-13T00:34:21;4.7;84.7
67893;DHT22;54688;52.376;16.744;2023-02-13T00:37:24;4.7;84.8
67893;DHT22;54688;52.376;16.744;2023-02-13T00:40:27;4.7;85
67893;DHT22;54688;52.376;16.744;2023-02-13T00:43:29;4.7;85
67893;DHT22;54688;52.376;16.744;2023-02-13T00:46:32;4.7;85.1
67893;DHT22;54688;52.376;16.744;2023-02-13T00:49:33;4.7;85.2
67893;DHT22;54688;52.376;16.744;2023-02-13T00:52:35;4.7;85.5
67893;DHT22;54688;52.376;16.744;2023-02-13T00:55:37;4.7;85.6
67893;DHT22;54688;52.376;16.744;2023-02-13T00:58:39;4.7;85.8
67893;DHT22;54688;52.376;16.744;2023-02-13T01:01:41;4.7;85.9
67893;DHT22;54688;52.376;16.744;2023-02-13T01:04:44;4.7;86
67893;DHT22;54688;52.376;16.744;2023-02-13T01:07:46;4.7;86
67893;DHT22;54688;52.376;16.744;2023-02-13T01:10:48;4.7;86.2
67893;DHT22;54688;52.376;16.744;2023-02-13T01:13:51;4.7;86.4
67893;DHT22;54688;52.376;16.744;2023-02-13T01:16:53;4.7;86.4
67893;DHT22;54688;52.376;16.744;2023-02-13T01:19:56;4.7;86.5
67893;DHT22;54688;52.376;16.744;2023-02-13T01:22:58;4.7;86.5
67893;DHT22;54688;52.376;16.744;2023-02-13T01:26:02;4.7;86.7
67893;DHT22;54688;52.376;16.744;2023-02-13T01:29:04;4.8;86.9
67893;DHT22;54688;52.376;16.744;2023-02-13T01:32:06;4.8;86.9
67893;DHT22;54688;52.376;16.744;2023-02-13T01:35:08;4.8;87
67893;DHT22;54688;52.376;16.744;2023-02-13T01:38:11;4.7;87
67893;DHT22;54688;52.376;16.744;2023-02-13T01:41:14;4.8;87
67893;DHT22;54688;52.376;16.744;2023-02-13T01:44:48;4.8;87.1
67893;DHT22;54688;52.376;16.744;2023-02-13T01:47:53;4.8;87.1
67893;DHT22;54688;52.376;16.744;2023-02-13T01:50:58;4.7;87.2
67893;DHT22;54688;52.376;16.744;2023-02-13T01:54:03;4.7;87.4
67893;DHT22;54688;52.376;16.744;2023-02-13T01:57:08;4.8;87.4
67893;DHT22;54688;52.376;16.744;2023-02-13T02:00:14;4.8;87.2
67893;DHT22;54688;52.376;16.744;2023-02-13T02:03:18;4.8;87.3
67893;DHT22;54688;52.376;16.744;2023-02-13T02:06:24;4.8;87.3
67893;DHT22;54688;52.376;16.744;2023-02-13T02:09:28;4.7;87.3
67893;DHT22;54688;52.376;16.744;2023-02-13T02:12:35;4.7;87.3
67893;DHT22;54688;52.376;16.744;2023-02-13T02:15:43;4.7;87.2
67893;DHT22;54688;52.376;16.744;2023-02-13T02:18:46;4.7;87.2
67893;DHT22;54688;52.376;16.744;2023-02-13T02:21:52;4.7;87.2
67893;DHT22;54688;52.376;16.744;2023-02-13T02:25:16;4.7;87.3
67893;DHT22;54688;52.376;16.744;2023-02-13T02:28:35;4.7;87.3
67893;DHT22;54688;52.376;16.744;2023-02-13T02:32:01;4.6;87.5
67893;DHT22;54688;52.376;16.744;2023-02-13T02:35:14;4.6;87.4
67893;DHT22;54688;52.376;16.744;2023-02-13T02:38:29;4.7;87.5
67893;DHT22;54688;52.376;16.744;2023-02-13T02:41:45;4.6;87.6
67893;DHT22;54688;52.376;16.744;2023-02-13T02:44:57;4.6;87.7
67893;DHT22;54688;52.376;16.744;2023-02-13T02:48:08;4.7;87.8
67893;DHT22;54688;52.376;16.744;2023-02-13T02:51:17;4.7;87.8
67893;DHT22;54688;52.376;16.744;2023-02-13T02:54:21;4.7;87.7
67893;DHT22;54688;52.376;16.744;2023-02-13T02:57:28;4.6;87.5
67893;DHT22;54688;52.376;16.744;2023-02-13T03:00:32;4.6;87.5
67893;DHT22;54688;52.376;16.744;2023-02-13T03:03:37;4.6;87.5
67893;DHT22;54688;52.376;16.744;2023-02-13T03:06:43;4.7;87.7
67893;DHT22;54688;52.376;16.744;2023-02-13T03:09:50;4.7;87.8
67893;DHT22;54688;52.376;16.744;2023-02-13T03:12:55;4.6;87.9
67893;DHT22;54688;52.376;16.744;2023-02-13T03:16:01;4.6;88.1
67893;DHT22;54688;52.376;16.744;2023-02-13T03:19:05;4.6;88.3
67893;DHT22;54688;52.376;16.744;2023-02-13T03:22:16;4.7;88.4
67893;DHT22;54688;52.376;16.744;2023-02-13T03:25:35;4.7;88.5
67893;DHT22;54688;52.376;16.744;2023-02-13T03:28:47;4.7;88.5
67893;DHT22;54688;52.376;16.744;2023-02-13T03:31:59;4.7;88.7
67893;DHT22;54688;52.376;16.744;2023-02-13T03:35:14;4.7;88.6
67893;DHT22;54688;52.376;16.744;2023-02-13T03:38:26;4.7;88.6
67893;DHT22;54688;52.376;16.744;2023-02-13T03:41:33;4.7;88.7
67893;DHT22;54688;52.376;16.744;2023-02-13T03:44:47;4.8;88.9
67893;DHT22;54688;52.376;16.744;2023-02-13T03:47:55;4.7;89
67893;DHT22;54688;52.376;16.744;2023-02-13T03:51:00;4.7;89.2
67893;DHT22;54688;52.376;16.744;2023-02-13T03:57:04;4.7;89.6
67893;DHT22;54688;52.376;16.744;2023-02-13T04:00:09;4.7;89.7
67893;DHT22;54688;52.376;16.744;2023-02-13T04:03:15;4.8;89.8
67893;DHT22;54688;52.376;16.744;2023-02-13T04:06:22;4.7;89.8
67893;DHT22;54688;52.376;16.744;2023-02-13T04:09:28;4.7;89.7
67893;DHT22;54688;52.376;16.744;2023-02-13T04:12:35;4.7;89.9
67893;DHT22;54688;52.376;16.744;2023-02-13T04:15:41;4.8;90
67893;DHT22;54688;52.376;16.744;2023-02-13T04:18:48;4.8;90
67893;DHT22;54688;52.376;16.744;2023-02-13T04:21:54;4.7;90
67893;DHT22;54688;52.376;16.744;2023-02-13T04:24:58;4.8;90.1
67893;DHT22;54688;52.376;16.744;2023-02-13T04:28:02;4.8;90
67893;DHT22;54688;52.376;16.744;2023-02-13T04:31:04;4.8;90
67893;DHT22;54688;52.376;16.744;2023-02-13T04:34:06;4.8;90
67893;DHT22;54688;52.376;16.744;2023-02-13T04:37:08;4.8;90
67893;DHT22;54688;52.376;16.744;2023-02-13T04:40:11;4.9;90
67893;DHT22;54688;52.376;16.744;2023-02-13T04:43:14;4.9;90
67893;DHT22;54688;52.376;16.744;2023-02-13T04:46:16;4.9;90
67893;DHT22;54688;52.376;16.744;2023-02-13T04:49:18;4.9;89.9
67893;DHT22;54688;52.376;16.744;2023-02-13T04:52:20;5;89.8
67893;DHT22;54688;52.376;16.744;2023-02-13T04:55:22;5;89.9
67893;DHT22;54688;52.376;16.744;2023-02-13T04:58:26;4.9;89.8
67893;DHT22;54688;52.376;16.744;2023-02-13T05:01:28;4.9;89.7
67893;DHT22;54688;52.376;16.744;2023-02-13T05:04:31;5;89.8
67893;DHT22;54688;52.376;16.744;2023-02-13T05:07:33;5;89.7
67893;DHT22;54688;52.376;16.744;2023-02-13T05:10:36;5;89.7
67893;DHT22;54688;52.376;16.744;2023-02-13T05:13:38;5;89.7
67893;DHT22;54688;52.376;16.744;2023-02-13T05:16:40;5;89.5
67893;DHT22;54688;52.376;16.744;2023-02-13T05:19:42;5;89.5
67893;DHT22;54688;52.376;16.744;2023-02-13T05:22:44;5;89.5
67893;DHT22;54688;52.376;16.744;2023-02-13T05:25:47;5;89.4
67893;DHT22;54688;52.376;16.744;2023-02-13T05:28:50;5;89.4
67893;DHT22;54688;52.376;16.744;2023-02-13T05:31:52;5;89.4
67893;DHT22;54688;52.376;16.744;2023-02-13T05:34:56;5;89.4
67893;DHT22;54688;52.376;16.744;2023-02-13T05:37:58;5;89.4
67893;DHT22;54688;52.376;16.744;2023-02-13T05:41:01;5;89.4
67893;DHT22;54688;52.376;16.744;2023-02-13T05:44:03;5;89.3
67893;DHT22;54688;52.376;16.744;2023-02-13T05:47:05;5;89.3
67893;DHT22;54688;52.376;16.744;2023-02-13T05:50:08;5;89.1
67893;DHT22;54688;52.376;16.744;2023-02-13T05:53:10;5;89.1
67893;DHT22;54688;52.376;16.744;2023-02-13T05:56:13;5;89.1
67893;DHT22;54688;52.376;16.744;2023-02-13T05:59:15;5;89.2
67893;DHT22;54688;52.376;16.744;2023-02-13T06:02:17;5;89.1
67893;DHT22;54688;52.376;16.744;2023-02-13T06:05:19;5;89.1
67893;DHT22;54688;52.376;16.744;2023-02-13T06:08:21;5;89
67893;DHT22;54688;52.376;16.744;2023-02-13T06:11:24;5;88.9
67893;DHT22;54688;52.376;16.744;2023-02-13T06:14:27;5;88.9
67893;DHT22;54688;52.376;16.744;2023-02-13T06:17:28;5;89
67893;DHT22;54688;52.376;16.744;2023-02-13T06:20:31;5;89
67893;DHT22;54688;52.376;16.744;2023-02-13T06:23:33;5;89
67893;DHT22;54688;52.376;16.744;2023-02-13T06:26:36;5;88.8
67893;DHT22;54688;52.376;16.744;2023-02-13T06:29:38;4.9;88.3
67893;DHT22;54688;52.376;16.744;2023-02-13T06:32:40;5;87.9
67893;DHT22;54688;52.376;16.744;2023-02-13T06:35:42;4.9;87
67893;DHT22;54688;52.376;16.744;2023-02-13T06:38:44;4.9;86.5
67893;DHT22;54688;52.376;16.744;2023-02-13T06:41:47;4.9;87.1
67893;DHT22;54688;52.376;16.744;2023-02-13T06:44:49;4.9;86.3
67893;DHT22;54688;52.376;16.744;2023-02-13T06:47:51;4.9;86.3
67893;DHT22;54688;52.376;16.744;2023-02-13T06:50:53;4.9;87.1
67893;DHT22;54688;52.376;16.744;2023-02-13T06:53:54;4.9;86.4
67893;DHT22;54688;52.376;16.744;2023-02-13T06:56:57;4.9;86.3
67893;DHT22;54688;52.376;16.744;2023-02-13T06:59:59;4.9;86.8
67893;DHT22;54688;52.376;16.744;2023-02-13T07:03:01;4.9;86.7
67893;DHT22;54688;52.376;16.744;2023-02-13T07:06:05;4.9;86.6
67893;DHT22;54688;52.376;16.744;2023-02-13T07:09:07;5;86.7
67893;DHT22;54688;52.376;16.744;2023-02-13T07:12:09;4.9;86.9
67893;DHT22;54688;52.376;16.744;2023-02-13T07:15:11;4.9;87.1
67893;DHT22;54688;52.376;16.744;2023-02-13T07:18:14;4.9;87
67893;DHT22;54688;52.376;16.744;2023-02-13T07:21:16;4.9;86.8
67893;DHT22;54688;52.376;16.744;2023-02-13T07:24:19;4.9;86.3
67893;DHT22;54688;52.376;16.744;2023-02-13T07:27:20;4.9;85.9
67893;DHT22;54688;52.376;16.744;2023-02-13T07:30:22;4.9;85.8
67893;DHT22;54688;52.376;16.744;2023-02-13T07:33:24;4.9;85.2
67893;DHT22;54688;52.376;16.744;2023-02-13T07:36:26;4.9;84.2
67893;DHT22;54688;52.376;16.744;2023-02-13T07:39:29;4.8;83.9
67893;DHT22;54688;52.376;16.744;2023-02-13T07:42:31;4.8;83.9
67893;DHT22;54688;52.376;16.744;2023-02-13T07:45:33;4.8;83.9
67893;DHT22;54688;52.376;16.744;2023-02-13T07:48:35;4.8;83.7
67893;DHT22;54688;52.376;16.744;2023-02-13T07:51:38;4.8;83.6
67893;DHT22;54688;52.376;16.744;2023-02-13T07:54:40;4.8;82.9
67893;DHT22;54688;52.376;16.744;2023-02-13T07:57:43;4.8;83.4
67893;DHT22;54688;52.376;16.744;2023-02-13T08:00:45;4.8;82.5
67893;DHT22;54688;52.376;16.744;2023-02-13T08:03:47;4.8;82.2
67893;DHT22;54688;52.376;16.744;2023-02-13T08:06:50;4.8;82.1
67893;DHT22;54688;52.376;16.744;2023-02-13T08:09:52;4.8;82.1
67893;DHT22;54688;52.376;16.744;2023-02-13T08:12:53;4.8;82.5
67893;DHT22;54688;52.376;16.744;2023-02-13T08:15:55;4.8;82.3
67893;DHT22;54688;52.376;16.744;2023-02-13T08:18:57;4.8;81.7
67893;DHT22;54688;52.376;16.744;2023-02-13T08:22:00;4.8;81.9
67893;DHT22;54688;52.376;16.744;2023-02-13T08:25:03;4.8;81.8
67893;DHT22;54688;52.376;16.744;2023-02-13T08:28:06;4.8;82
67893;DHT22;54688;52.376;16.744;2023-02-13T08:31:08;4.8;82.4
67893;DHT22;54688;52.376;16.744;2023-02-13T08:34:11;4.8;82.8
67893;DHT22;54688;52.376;16.744;2023-02-13T08:37:13;4.8;81.8
67893;DHT22;54688;52.376;16.744;2023-02-13T08:40:16;4.9;83
67893;DHT22;54688;52.376;16.744;2023-02-13T08:43:18;4.9;82.1
67893;DHT22;54688;52.376;16.744;2023-02-13T08:46:20;4.9;81.4
67893;DHT22;54688;52.376;16.744;2023-02-13T08:49:23;4.9;81.6
67893;DHT22;54688;52.376;16.744;2023-02-13T08:52:24;4.9;81.3
67893;DHT22;54688;52.376;16.744;2023-02-13T08:55:26;4.9;80.5
67893;DHT22;54688;52.376;16.744;2023-02-13T08:58:29;4.9;81.1
67893;DHT22;54688;52.376;16.744;2023-02-13T09:01:31;4.9;80.4
67893;DHT22;54688;52.376;16.744;2023-02-13T09:04:33;5;80.5
67893;DHT22;54688;52.376;16.744;2023-02-13T09:07:35;5;81.6
67893;DHT22;54688;52.376;16.744;2023-02-13T09:10:37;4.9;81.7
67893;DHT22;54688;52.376;16.744;2023-02-13T09:13:39;5;80.7
67893;DHT22;54688;52.376;16.744;2023-02-13T09:19:40;5;80.5
67893;DHT22;54688;52.376;16.744;2023-02-13T09:22:42;5;80
67893;DHT22;54688;52.376;16.744;2023-02-13T09:25:44;5.1;80.4
67893;DHT22;54688;52.376;16.744;2023-02-13T09:28:47;5.1;80.6
67893;DHT22;54688;52.376;16.744;2023-02-13T09:31:49;5.1;79.9
67893;DHT22;54688;52.376;16.744;2023-02-13T09:34:51;5.1;79.4
67893;DHT22;54688;52.376;16.744;2023-02-13T09:37:54;5.1;79.6
67893;DHT22;54688;52.376;16.744;2023-02-13T09:40:57;5.1;79.9
67893;DHT22;54688;52.376;16.744;2023-02-13T09:44:04;5.1;80
67893;DHT22;54688;52.376;16.744;2023-02-13T09:47:13;5.2;80.1
67893;DHT22;54688;52.376;16.744;2023-02-13T09:50:20;5.1;78.4
67893;DHT22;54688;52.376;16.744;2023-02-13T09:53:25;5.2;79.9
67893;DHT22;54688;52.376;16.744;2023-02-13T09:56:36;5.2;79.8
67893;DHT22;54688;52.376;16.744;2023-02-13T09:59:45;5.2;80.1
67893;DHT22;54688;52.376;16.744;2023-02-13T10:03:00;5.2;79.5
67893;DHT22;54688;52.376;16.744;2023-02-13T10:06:18;5.2;79.4
67893;DHT22;54688;52.376;16.744;2023-02-13T10:09:29;5.2;79.1
67893;DHT22;54688;52.376;16.744;2023-02-13T10:12:38;5.2;79.2
67893;DHT22;54688;52.376;16.744;2023-02-13T10:15:53;5.3;78.6
67893;DHT22;54688;52.376;16.744;2023-02-13T10:19:03;5.3;79.1
67893;DHT22;54688;52.376;16.744;2023-02-13T10:22:16;5.3;78.3
67893;DHT22;54688;52.376;16.744;2023-02-13T10:25:20;5.3;78.6
67893;DHT22;54688;52.376;16.744;2023-02-13T10:28:27;5.3;78.9
67893;DHT22;54688;52.376;16.744;2023-02-13T10:31:32;5.3;78.8
67893;DHT22;54688;52.376;16.744;2023-02-13T10:34:36;5.3;77.1
67893;DHT22;54688;52.376;16.744;2023-02-13T10:37:43;5.3;77.1
67893;DHT22;54688;52.376;16.744;2023-02-13T10:40:52;5.4;77.4
67893;DHT22;54688;52.376;16.744;2023-02-13T10:44:40;5.4;77.4
67893;DHT22;54688;52.376;16.744;2023-02-13T10:47:55;5.4;77.2
67893;DHT22;54688;52.376;16.744;2023-02-13T10:51:07;5.4;75.3
67893;DHT22;54688;52.376;16.744;2023-02-13T10:54:19;5.4;77.3
67893;DHT22;54688;52.376;16.744;2023-02-13T10:57:30;5.4;76.6
67893;DHT22;54688;52.376;16.744;2023-02-13T11:00:41;5.4;76.3
67893;DHT22;54688;52.376;16.744;2023-02-13T11:03:48;5.4;77.1
67893;DHT22;54688;52.376;16.744;2023-02-13T11:07:08;5.4;77.4
67893;DHT22;54688;52.376;16.744;2023-02-13T11:10:16;5.4;77.4
67893;DHT22;54688;52.376;16.744;2023-02-13T11:13:20;5.4;77.1
67893;DHT22;54688;52.376;16.744;2023-02-13T11:16:23;5.4;77.5
67893;DHT22;54688;52.376;16.744;2023-02-13T11:19:28;5.4;77.3
67893;DHT22;54688;52.376;16.744;2023-02-13T11:22:33;5.4;77.6
67893;DHT22;54688;52.376;16.744;2023-02-13T11:25:38;5.4;77.3
67893;DHT22;54688;52.376;16.744;2023-02-13T11:28:46;5.4;77.5
67893;DHT22;54688;52.376;16.744;2023-02-13T11:32:00;5.4;77.5
67893;DHT22;54688;52.376;16.744;2023-02-13T11:35:37;5.3;77.4
67893;DHT22;54688;52.376;16.744;2023-02-13T11:38:40;5.4;77
67893;DHT22;54688;52.376;16.744;2023-02-13T11:41:43;5.4;76.8
67893;DHT22;54688;52.376;16.744;2023-02-13T11:44:48;5.5;77.3
67893;DHT22;54688;52.376;16.744;2023-02-13T11:47:53;5.4;76.1
67893;DHT22;54688;52.376;16.744;2023-02-13T11:50:56;5.5;75.9
67893;DHT22;54688;52.376;16.744;2023-02-13T11:53:58;5.5;75.7
67893;DHT22;54688;52.376;16.744;2023-02-13T11:57:01;5.5;75.7
67893;DHT22;54688;52.376;16.744;2023-02-13T12:00:26;5.5;75.4
67893;DHT22;54688;52.376;16.744;2023-02-13T12:03:31;5.5;75.2
67893;DHT22;54688;52.376;16.744;2023-02-13T12:06:34;5.5;75.8
67893;DHT22;54688;52.376;16.744;2023-02-13T12:09:36;5.5;75.1
67893;DHT22;54688;52.376;16.744;2023-02-13T12:12:42;5.6;76
67893;DHT22;54688;52.376;16.744;2023-02-13T12:15:48;5.6;75.6
67893;DHT22;54688;52.376;16.744;2023-02-13T12:18:58;5.6;75.3
67893;DHT22;54688;52.376;16.744;2023-02-13T12:22:08;5.6;75.7
67893;DHT22;54688;52.376;16.744;2023-02-13T12:25:51;5.6;75.2
67893;DHT22;54688;52.376;16.744;2023-02-13T12:29:13;5.6;74.9
67893;DHT22;54688;52.376;16.744;2023-02-13T12:32:30;5.6;74.5
67893;DHT22;54688;52.376;16.744;2023-02-13T12:35:44;5.5;75
67893;DHT22;54688;52.376;16.744;2023-02-13T12:38:58;5.5;75.1
67893;DHT22;54688;52.376;16.744;2023-02-13T12:42:20;5.5;74.8
67893;DHT22;54688;52.376;16.744;2023-02-13T12:45:33;5.5;75.3
67893;DHT22;54688;52.376;16.744;2023-02-13T12:48:43;5.5;75.3
67893;DHT22;54688;52.376;16.744;2023-02-13T12:51:55;5.5;75.5
67893;DHT22;54688;52.376;16.744;2023-02-13T12:55:18;5.5;75.5
67893;DHT22;54688;52.376;16.744;2023-02-13T12:58:33;5.5;74.7
67893;DHT22;54688;52.376;16.744;2023-02-13T13:01:53;5.5;75.5
67893;DHT22;54688;52.376;16.744;2023-02-13T13:05:10;5.5;75.1
67893;DHT22;54688;52.376;16.744;2023-02-13T13:08:23;5.5;74.9
67893;DHT22;54688;52.376;16.744;2023-02-13T13:11:42;5.6;75.3
67893;DHT22;54688;52.376;16.744;2023-02-13T13:14:56;5.6;75
67893;DHT22;54688;52.376;16.744;2023-02-13T13:18:09;5.6;74.6
67893;DHT22;54688;52.376;16.744;2023-02-13T13:21:25;5.6;74.6
67893;DHT22;54688;52.376;16.744;2023-02-13T13:24:39;5.6;74.1
67893;DHT22;54688;52.376;16.744;2023-02-13T13:27:49;5.6;73.6
67893;DHT22;54688;52.376;16.744;2023-02-13T13:30:54;5.7;73.6
67893;DHT22;54688;52.376;16.744;2023-02-13T13:33:59;5.7;73.4
67893;DHT22;54688;52.376;16.744;2023-02-13T13:37:06;5.7;73.9
67893;DHT22;54688;52.376;16.744;2023-02-13T13:40:20;5.7;73.8
67893;DHT22;54688;52.376;16.744;2023-02-13T13:43:32;5.7;73.9
67893;DHT22;54688;52.376;16.744;2023-02-13T13:46:45;5.7;73.4
67893;DHT22;54688;52.376;16.744;2023-02-13T13:49:52;5.7;73.1
67893;DHT22;54688;52.376;16.744;2023-02-13T13:53:11;5.7;72.2
67893;DHT22;54688;52.376;16.744;2023-02-13T13:56:14;5.7;72.9
67893;DHT22;54688;52.376;16.744;2023-02-13T13:59:17;5.7;72.6
67893;DHT22;54688;52.376;16.744;2023-02-13T14:03:30;5.7;72.3
67893;DHT22;54688;52.376;16.744;2023-02-13T14:07:40;5.7;71.9
67893;DHT22;54688;52.376;16.744;2023-02-13T14:10:57;5.7;71.1
67893;DHT22;54688;52.376;16.744;2023-02-13T14:14:42;5.7;71.1
67893;DHT22;54688;52.376;16.744;2023-02-13T14:17:52;5.7;70.9
67893;DHT22;54688;52.376;16.744;2023-02-13T14:20:55;5.8;71
67893;DHT22;54688;52.376;16.744;2023-02-13T14:24:01;5.8;70.2
67893;DHT22;54688;52.376;16.744;2023-02-13T14:27:03;5.8;70.6
67893;DHT22;54688;52.376;16.744;2023-02-13T14:30:22;5.8;70.5
67893;DHT22;54688;52.376;16.744;2023-02-13T14:33:29;5.7;70.9
67893;DHT22;54688;52.376;16.744;2023-02-13T14:36:33;5.8;70.1
67893;DHT22;54688;52.376;16.744;2023-02-13T14:39:37;5.8;70.3
67893;DHT22;54688;52.376;16.744;2023-02-13T14:42:40;5.7;70.2
67893;DHT22;54688;52.376;16.744;2023-02-13T14:45:46;5.7;70.2
67893;DHT22;54688;52.376;16.744;2023-02-13T14:48:55;5.7;69.8
67893;DHT22;54688;52.376;16.744;2023-02-13T14:52:00;5.7;70.4
67893;DHT22;54688;52.376;16.744;2023-02-13T14:55:06;5.7;72.1
67893;DHT22;54688;52.376;16.744;2023-02-13T14:58:19;5.6;70.8
67893;DHT22;54688;52.376;16.744;2023-02-13T15:01:27;5.6;71.2
67893;DHT22;54688;52.376;16.744;2023-02-13T15:04:33;5.6;70.6
67893;DHT22;54688;52.376;16.744;2023-02-13T15:07:41;5.6;71.3
67893;DHT22;54688;52.376;16.744;2023-02-13T15:10:48;5.5;71.3
67893;DHT22;54688;52.376;16.744;2023-02-13T15:13:52;5.5;71.7
67893;DHT22;54688;52.376;16.744;2023-02-13T15:19:54;5.5;71.4
67893;DHT22;54688;52.376;16.744;2023-02-13T15:23:05;5.5;71.3
67893;DHT22;54688;52.376;16.744;2023-02-13T15:26:07;5.5;70.7
67893;DHT22;54688;52.376;16.744;2023-02-13T15:29:12;5.5;70.2
67893;DHT22;54688;52.376;16.744;2023-02-13T15:32:17;5.5;70
67893;DHT22;54688;52.376;16.744;2023-02-13T15:35:23;5.4;69.7
67893;DHT22;54688;52.376;16.744;2023-02-13T15:38:27;5.5;69.9
67893;DHT22;54688;52.376;16.744;2023-02-13T15:41:31;5.4;69
67893;DHT22;54688;52.376;16.744;2023-02-13T15:44:36;5.4;69.3
67893;DHT22;54688;52.376;16.744;2023-02-13T15:47:39;5.4;69.4
67893;DHT22;54688;52.376;16.744;2023-02-13T15:50:44;5.4;69.9
67893;DHT22;54688;52.376;16.744;2023-02-13T15:53:50;5.4;69.5
67893;DHT22;54688;52.376;16.744;2023-02-13T15:56:53;5.4;69.9
67893;DHT22;54688;52.376;16.744;2023-02-13T15:59:58;5.4;69.8
67893;DHT22;54688;52.376;16.744;2023-02-13T16:03:02;5.4;69.6
67893;DHT22;54688;52.376;16.744;2023-02-13T16:06:06;5.3;70.1
67893;DHT22;54688;52.376;16.744;2023-02-13T16:09:21;5.3;69.4
67893;DHT22;54688;52.376;16.744;2023-02-13T16:12:26;5.3;69.5
67893;DHT22;54688;52.376;16.744;2023-02-13T16:15:29;5.3;69.7
67893;DHT22;54688;52.376;16.744;2023-02-13T16:18:33;5.3;70
67893;DHT22;54688;52.376;16.744;2023-02-13T16:21:36;5.3;69.9
67893;DHT22;54688;52.376;16.744;2023-02-13T16:24:39;5.3;70.4
67893;DHT22;54688;52.376;16.744;2023-02-13T16:27:45;5.3;70.6
67893;DHT22;54688;52.376;16.744;2023-02-13T16:30:51;5.3;70.3
67893;DHT22;54688;52.376;16.744;2023-02-13T16:33:57;5.3;69.9
67893;DHT22;54688;52.376;16.744;2023-02-13T16:36:59;5.2;70.6
67893;DHT22;54688;52.376;16.744;2023-02-13T16:41:06;5.2;70.3
67893;DHT22;54688;52.376;16.744;2023-02-13T16:44:30;5.2;70.9
67893;DHT22;54688;52.376;16.744;2023-02-13T16:47:33;5.2;70
67893;DHT22;54688;52.376;16.744;2023-02-13T16:50:36;5.2;69.8
67893;DHT22;54688;52.376;16.744;2023-02-13T16:53:38;5.2;69.8
67893;DHT22;54688;52.376;16.744;2023-02-13T16:56:41;5.2;70.1
67893;DHT22;54688;52.376;16.744;2023-02-13T16:59:51;5.2;69.4
67893;DHT22;54688;52.376;16.744;2023-02-13T17:02:57;5.2;70.2
67893;DHT22;54688;52.376;16.744;2023-02-13T17:06:00;5.2;69.5
67893;DHT22;54688;52.376;16.744;2023-02-13T17:09:02;5.2;69.8
67893;DHT22;54688;52.376;16.744;2023-02-13T17:12:08;5.2;70
67893;DHT22;54688;52.376;16.744;2023-02-13T17:15:15;5.2;70.3
67893;DHT22;54688;52.376;16.744;2023-02-13T17:18:18;5.2;69.8
67893;DHT22;54688;52.376;16.744;2023-02-13T17:21:20;5.2;69.7
67893;DHT22;54688;52.376;16.744;2023-02-13T17:24:23;5.2;70
67893;DHT22;54688;52.376;16.744;2023-02-13T17:27:25;5.2;69.8
67893;DHT22;54688;52.376;16.744;2023-02-13T17:30:28;5.2;69.7
67893;DHT22;54688;52.376;16.744;2023-02-13T17:33:31;5.1;69.9
67893;DHT22;54688;52.376;16.744;2023-02-13T17:36:33;5.2;69.5
67893;DHT22;54688;52.376;16.744;2023-02-13T17:39:35;5.2;70.2
67893;DHT22;54688;52.376;16.744;2023-02-13T17:42:37;5.1;70
67893;DHT22;54688;52.376;16.744;2023-02-13T17:45:40;5.2;70.1
67893;DHT22;54688;52.376;16.744;2023-02-13T17:48:42;5.2;69.8
67893;DHT22;54688;52.376;16.744;2023-02-13T17:51:44;5.2;70.5
67893;DHT22;54688;52.376;16.744;2023-02-13T17:54:47;5.2;69.8
67893;DHT22;54688;52.376;16.744;2023-02-13T17:57:49;5.2;70.1
67893;DHT22;54688;52.376;16.744;2023-02-13T18:00:53;5.1;70.2
67893;DHT22;54688;52.376;16.744;2023-02-13T18:03:55;5.2;70
67893;DHT22;54688;52.376;16.744;2023-02-13T18:06:57;5.2;70.6
67893;DHT22;54688;52.376;16.744;2023-02-13T18:10:00;5.1;69.7
67893;DHT22;54688;52.376;16.744;2023-02-13T18:13:02;5.1;69.7
67893;DHT22;54688;52.376;16.744;2023-02-13T18:16:06;5.1;69.9
67893;DHT22;54688;52.376;16.744;2023-02-13T18:19:10;5.1;70
67893;DHT22;54688;52.376;16.744;2023-02-13T18:22:12;5.1;70.7
67893;DHT22;54688;52.376;16.744;2023-02-13T18:25:14;5.1;70.7
67893;DHT22;54688;52.376;16.744;2023-02-13T18:28:17;5.1;70.4
67893;DHT22;54688;52.376;16.744;2023-02-13T18:31:19;5.1;70.2
67893;DHT22;54688;52.376;16.744;2023-02-13T18:34:22;5.1;70.2
67893;DHT22;54688;52.376;16.744;2023-02-13T18:37:24;5.1;70
67893;DHT22;54688;52.376;16.744;2023-02-13T18:40:27;5.1;70.8
67893;DHT22;54688;52.376;16.744;2023-02-13T18:43:29;5.1;69.9
67893;DHT22;54688;52.376;16.744;2023-02-13T18:46:30;5.1;70.2
67893;DHT22;54688;52.376;16.744;2023-02-13T18:49:32;5.1;70.2
67893;DHT22;54688;52.376;16.744;2023-02-13T18:52:35;5.1;70.5
67893;DHT22;54688;52.376;16.744;2023-02-13T18:55:37;5.1;70
67893;DHT22;54688;52.376;16.744;2023-02-13T18:58:40;5.1;70.3
67893;DHT22;54688;52.376;16.744;2023-02-13T19:01:41;5;70.7
67893;DHT22;54688;52.376;16.744;2023-02-13T19:04:44;5;71.4
67893;DHT22;54688;52.376;16.744;2023-02-13T19:07:46;5;70.9
67893;DHT22;54688;52.376;16.744;2023-02-13T19:10:49;5;70.3
67893;DHT22;54688;52.376;16.744;2023-02-13T19:13:52;5;70.4
67893;DHT22;54688;52.376;16.744;2023-02-13T19:16:55;5;70.4
67893;DHT22;54688;52.376;16.744;2023-02-13T19:19:57;5;70.2
67893;DHT22;54688;52.376;16.744;2023-02-13T19:22:59;5;70.2
67893;DHT22;54688;52.376;16.744;2023-02-13T19:26:03;4.9;70
67893;DHT22;54688;52.376;16.744;2023-02-13T19:29:06;5;70.4
67893;DHT22;54688;52.376;16.744;2023-02-13T19:32:08;5;70.4
67893;DHT22;54688;52.376;16.744;2023-02-13T19:35:11;5;70.3
67893;DHT22;54688;52.376;16.744;2023-02-13T19:38:13;5;70.5
67893;DHT22;54688;52.376;16.744;2023-02-13T19:41:16;5;70.3
67893;DHT22;54688;52.376;16.744;2023-02-13T19:44:19;5;70
67893;DHT22;54688;52.376;16.744;2023-02-13T19:47:21;5;70.1
67893;DHT22;54688;52.376;16.744;2023-02-13T19:50:23;5;70.5
67893;DHT22;54688;52.376;16.744;2023-02-13T19:53:27;5;70.9
67893;DHT22;54688;52.376;16.744;2023-02-13T19:56:29;5;70.2
67893;DHT22;54688;52.376;16.744;2023-02-13T19:59:32;4.9;71
67893;DHT22;54688;52.376;16.744;2023-02-13T20:02:34;5;70.1
67893;DHT22;54688;52.376;16.744;2023-02-13T20:05:37;4.9;70
67893;DHT22;54688;52.376;16.744;2023-02-13T20:08:41;4.9;70.1
67893;DHT22;54688;52.376;16.744;2023-02-13T20:11:43;4.9;70.2
67893;DHT22;54688;52.376;16.744;2023-02-13T20:14:45;4.9;70.5
67893;DHT22;54688;52.376;16.744;2023-02-13T20:17:47;4.9;70.5
67893;DHT22;54688;52.376;16.744;2023-02-13T20:20:49;4.9;70.5
67893;DHT22;54688;52.376;16.744;2023-02-13T20:23:51;4.9;70.8
67893;DHT22;54688;52.376;16.744;2023-02-13T20:26:54;4.9;70.7
67893;DHT22;54688;52.376;16.744;2023-02-13T20:29:56;4.9;70.7
67893;DHT22;54688;52.376;16.744;2023-02-13T20:32:59;4.9;71.2